sensor_id;sensor_type;location;lat;lon;timestamp;pressure;altitude;pressure_sealevel;temperature;humidity
57048;BME280;42934;54.294;18.598;2023-07-09T00:02:18;101433.81;;;14.66;81.55
57048;BME280;42934;54.294;18.598;2023-07-09T00:04:47;101433.63;;;14.70;81.15
57048;BME280;42934;54.294;18.598;2023-07-09T00:07:17;101439.09;;;14.66;81.39
57048;BME280;42934;54.294;18.598;2023-07-09T00:09:48;101437.19;;;14.69;81.18
57048;BME280;42934;54.294;18.598;2023-07-09T00:12:18;101434.63;;;14.68;81.02
57048;BME280;42934;54.294;18.598;2023-07-09T00:14:46;101417.88;;;14.67;80.86
57048;BME280;42934;54.294;18.598;2023-07-09T00:17:18;101419.66;;;14.67;81.04
57048;BME280;42934;54.294;18.598;2023-07-09T00:19:48;101421.59;;;14.62;80.95
57048;BME280;42934;54.294;18.598;2023-07-09T00:22:18;101420.63;;;14.64;80.95
57048;BME280;42934;54.294;18.598;2023-07-09T00:24:50;101415.34;;;14.64;81.23
57048;BME280;42934;54.294;18.598;2023-07-09T00:27:19;101426.00;;;14.63;81.27
57048;BME280;42934;54.294;18.598;2023-07-09T00:29:49;101431.63;;;14.53;81.79
57048;BME280;42934;54.294;18.598;2023-07-09T00:32:20;101430.06;;;14.46;81.91
57048;BME280;42934;54.294;18.598;2023-07-09T00:34:49;101435.41;;;14.45;82.08
57048;BME280;42934;54.294;18.598;2023-07-09T00:37:19;101434.59;;;14.43;82.05
57048;BME280;42934;54.294;18.598;2023-07-09T00:39:50;101435.56;;;14.40;82.14
57048;BME280;42934;54.294;18.598;2023-07-09T00:42:20;101439.25;;;14.36;82.40
57048;BME280;42934;54.294;18.598;2023-07-09T00:44:51;101442.03;;;14.31;82.47
57048;BME280;42934;54.294;18.598;2023-07-09T00:47:31;101437.72;;;14.29;82.69
57048;BME280;42934;54.294;18.598;2023-07-09T00:50:10;101439.69;;;14.24;82.71
57048;BME280;42934;54.294;18.598;2023-07-09T00:52:42;101438.81;;;14.23;82.82
57048;BME280;42934;54.294;18.598;2023-07-09T00:55:17;101434.56;;;14.19;82.92
57048;BME280;42934;54.294;18.598;2023-07-09T00:57:48;101436.44;;;14.16;82.77
57048;BME280;42934;54.294;18.598;2023-07-09T01:00:25;101433.75;;;14.17;82.72
57048;BME280;42934;54.294;18.598;2023-07-09T01:02:56;101439.03;;;14.17;82.83
57048;BME280;42934;54.294;18.598;2023-07-09T01:05:27;101432.78;;;14.20;82.64
57048;BME280;42934;54.294;18.598;2023-07-09T01:07:56;101430.41;;;14.12;82.80
57048;BME280;42934;54.294;18.598;2023-07-09T01:10:27;101431.50;;;14.06;83.08
57048;BME280;42934;54.294;18.598;2023-07-09T01:12:58;101427.06;;;14.07;83.20
57048;BME280;42934;54.294;18.598;2023-07-09T01:15:27;101428.03;;;14.04;83.12
57048;BME280;42934;54.294;18.598;2023-07-09T01:17:57;101433.44;;;14.01;83.36
57048;BME280;42934;54.294;18.598;2023-07-09T01:20:26;101435.34;;;13.96;83.38
57048;BME280;42934;54.294;18.598;2023-07-09T01:22:56;101423.00;;;13.97;83.48
57048;BME280;42934;54.294;18.598;2023-07-09T01:25:28;101433.56;;;13.97;83.16
57048;BME280;42934;54.294;18.598;2023-07-09T01:27:58;101433.34;;;14.03;82.82
57048;BME280;42934;54.294;18.598;2023-07-09T01:30:29;101428.00;;;14.06;82.55
57048;BME280;42934;54.294;18.598;2023-07-09T01:32:59;101437.00;;;14.00;82.66
57048;BME280;42934;54.294;18.598;2023-07-09T01:35:30;101431.50;;;14.06;82.49
57048;BME280;42934;54.294;18.598;2023-07-09T01:38:01;101435.00;;;14.07;82.36
57048;BME280;42934;54.294;18.598;2023-07-09T01:40:29;101432.69;;;13.98;82.89
57048;BME280;42934;54.294;18.598;2023-07-09T01:43:02;101428.25;;;13.98;82.80
57048;BME280;42934;54.294;18.598;2023-07-09T01:45:34;101421.19;;;13.99;82.69
57048;BME280;42934;54.294;18.598;2023-07-09T01:48:05;101426.56;;;13.96;82.57
57048;BME280;42934;54.294;18.598;2023-07-09T01:50:35;101424.69;;;13.99;82.43
57048;BME280;42934;54.294;18.598;2023-07-09T01:53:08;101433.34;;;14.03;81.99
57048;BME280;42934;54.294;18.598;2023-07-09T01:55:41;101431.50;;;14.06;82.06
57048;BME280;42934;54.294;18.598;2023-07-09T01:58:10;101437.75;;;14.04;82.20
57048;BME280;42934;54.294;18.598;2023-07-09T02:00:39;101439.75;;;13.97;82.53
57048;BME280;42934;54.294;18.598;2023-07-09T02:03:10;101446.13;;;13.90;82.84
57048;BME280;42934;54.294;18.598;2023-07-09T02:05:40;101452.38;;;13.88;83.02
57048;BME280;42934;54.294;18.598;2023-07-09T02:08:10;101456.84;;;13.85;83.38
57048;BME280;42934;54.294;18.598;2023-07-09T02:10:39;101454.31;;;13.82;83.69
57048;BME280;42934;54.294;18.598;2023-07-09T02:13:08;101456.91;;;13.84;83.94
57048;BME280;42934;54.294;18.598;2023-07-09T02:15:37;101456.06;;;13.82;84.02
57048;BME280;42934;54.294;18.598;2023-07-09T02:18:11;101454.38;;;13.79;84.26
57048;BME280;42934;54.294;18.598;2023-07-09T02:20:40;101448.34;;;13.76;84.33
57048;BME280;42934;54.294;18.598;2023-07-09T02:23:11;101448.44;;;13.74;85.01
57048;BME280;42934;54.294;18.598;2023-07-09T02:25:40;101443.16;;;13.74;84.74
57048;BME280;42934;54.294;18.598;2023-07-09T02:28:09;101444.94;;;13.74;84.93
57048;BME280;42934;54.294;18.598;2023-07-09T02:30:37;101452.69;;;13.78;84.71
57048;BME280;42934;54.294;18.598;2023-07-09T02:33:06;101443.91;;;13.78;84.86
57048;BME280;42934;54.294;18.598;2023-07-09T02:35:35;101451.81;;;13.78;84.88
57048;BME280;42934;54.294;18.598;2023-07-09T02:38:04;101451.91;;;13.75;85.15
57048;BME280;42934;54.294;18.598;2023-07-09T02:40:34;101457.09;;;13.78;85.45
57048;BME280;42934;54.294;18.598;2023-07-09T02:43:03;101454.50;;;13.76;85.45
57048;BME280;42934;54.294;18.598;2023-07-09T02:45:33;101450.22;;;13.74;85.79
57048;BME280;42934;54.294;18.598;2023-07-09T02:48:02;101450.09;;;13.77;85.89
57048;BME280;42934;54.294;18.598;2023-07-09T02:50:36;101463.34;;;13.75;86.30
57048;BME280;42934;54.294;18.598;2023-07-09T02:53:05;101457.34;;;13.70;86.36
57048;BME280;42934;54.294;18.598;2023-07-09T02:55:35;101466.06;;;13.72;86.38
57048;BME280;42934;54.294;18.598;2023-07-09T02:58:04;101472.19;;;13.74;86.34
57048;BME280;42934;54.294;18.598;2023-07-09T03:00:33;101461.56;;;13.76;86.50
57048;BME280;42934;54.294;18.598;2023-07-09T03:03:02;101458.81;;;13.79;86.32
57048;BME280;42934;54.294;18.598;2023-07-09T03:05:32;101468.50;;;13.78;86.27
57048;BME280;42934;54.294;18.598;2023-07-09T03:08:01;101455.38;;;13.77;86.63
57048;BME280;42934;54.294;18.598;2023-07-09T03:10:30;101469.53;;;13.74;86.82
57048;BME280;42934;54.294;18.598;2023-07-09T03:13:01;101458.38;;;13.66;87.54
57048;BME280;42934;54.294;18.598;2023-07-09T03:15:30;101456.75;;;13.62;88.08
57048;BME280;42934;54.294;18.598;2023-07-09T03:17:59;101467.13;;;13.67;87.60
57048;BME280;42934;54.294;18.598;2023-07-09T03:20:28;101464.50;;;13.67;87.92
57048;BME280;42934;54.294;18.598;2023-07-09T03:22:57;101461.94;;;13.65;88.01
57048;BME280;42934;54.294;18.598;2023-07-09T03:25:26;101458.22;;;13.71;88.09
57048;BME280;42934;54.294;18.598;2023-07-09T03:27:55;101459.88;;;13.73;88.23
57048;BME280;42934;54.294;18.598;2023-07-09T03:30:25;101458.97;;;13.74;88.43
57048;BME280;42934;54.294;18.598;2023-07-09T03:32:54;101458.69;;;13.83;88.30
57048;BME280;42934;54.294;18.598;2023-07-09T03:35:23;101460.56;;;13.80;88.60
57048;BME280;42934;54.294;18.598;2023-07-09T03:37:52;101466.50;;;13.86;88.67
57048;BME280;42934;54.294;18.598;2023-07-09T03:40:21;101469.94;;;13.89;88.78
57048;BME280;42934;54.294;18.598;2023-07-09T03:42:51;101471.56;;;13.93;89.01
57048;BME280;42934;54.294;18.598;2023-07-09T03:45:20;101472.94;;;14.04;89.21
57048;BME280;42934;54.294;18.598;2023-07-09T03:47:50;101476.28;;;14.09;89.13
57048;BME280;42934;54.294;18.598;2023-07-09T03:50:19;101477.75;;;14.18;89.37
57048;BME280;42934;54.294;18.598;2023-07-09T03:52:48;101474.91;;;14.24;89.12
57048;BME280;42934;54.294;18.598;2023-07-09T03:55:17;101476.38;;;14.31;88.92
57048;BME280;42934;54.294;18.598;2023-07-09T03:57:46;101480.78;;;14.32;88.87
57048;BME280;42934;54.294;18.598;2023-07-09T04:00:15;101473.75;;;14.31;88.90
57048;BME280;42934;54.294;18.598;2023-07-09T04:02:44;101478.13;;;14.32;88.92
57048;BME280;42934;54.294;18.598;2023-07-09T04:05:15;101477.13;;;14.35;88.72
57048;BME280;42934;54.294;18.598;2023-07-09T04:07:45;101474.56;;;14.34;88.83
57048;BME280;42934;54.294;18.598;2023-07-09T04:10:14;101469.78;;;14.45;88.82
57048;BME280;42934;54.294;18.598;2023-07-09T04:12:43;101467.47;;;14.61;88.26
57048;BME280;42934;54.294;18.598;2023-07-09T04:15:11;101481.72;;;14.57;88.70
57048;BME280;42934;54.294;18.598;2023-07-09T04:17:41;101478.03;;;14.61;88.81
57048;BME280;42934;54.294;18.598;2023-07-09T04:20:10;101479.66;;;14.65;88.78
57048;BME280;42934;54.294;18.598;2023-07-09T04:22:41;101477.47;;;14.76;88.62
57048;BME280;42934;54.294;18.598;2023-07-09T04:25:11;101478.69;;;14.91;88.22
57048;BME280;42934;54.294;18.598;2023-07-09T04:27:40;101482.63;;;15.03;88.03
57048;BME280;42934;54.294;18.598;2023-07-09T04:30:09;101486.97;;;15.05;87.98
57048;BME280;42934;54.294;18.598;2023-07-09T04:32:39;101485.00;;;15.10;87.98
57048;BME280;42934;54.294;18.598;2023-07-09T04:35:08;101494.41;;;15.17;87.87
57048;BME280;42934;54.294;18.598;2023-07-09T04:37:39;101500.16;;;15.29;87.44
57048;BME280;42934;54.294;18.598;2023-07-09T04:40:09;101500.69;;;15.38;87.19
57048;BME280;42934;54.294;18.598;2023-07-09T04:42:39;101508.69;;;15.37;87.31
57048;BME280;42934;54.294;18.598;2023-07-09T04:45:09;101499.69;;;15.41;87.22
57048;BME280;42934;54.294;18.598;2023-07-09T04:47:39;101496.69;;;15.50;86.70
57048;BME280;42934;54.294;18.598;2023-07-09T04:50:08;101489.13;;;15.63;86.52
57048;BME280;42934;54.294;18.598;2023-07-09T04:52:38;101483.69;;;15.66;86.51
57048;BME280;42934;54.294;18.598;2023-07-09T04:55:09;101491.28;;;15.75;86.61
57048;BME280;42934;54.294;18.598;2023-07-09T04:57:38;101486.13;;;15.72;86.73
57048;BME280;42934;54.294;18.598;2023-07-09T05:00:08;101494.03;;;15.74;86.78
57048;BME280;42934;54.294;18.598;2023-07-09T05:02:38;101487.19;;;15.68;87.01
57048;BME280;42934;54.294;18.598;2023-07-09T05:05:07;101489.75;;;15.70;87.07
57048;BME280;42934;54.294;18.598;2023-07-09T05:07:37;101488.59;;;15.77;86.68
57048;BME280;42934;54.294;18.598;2023-07-09T05:10:06;101483.09;;;15.81;86.12
57048;BME280;42934;54.294;18.598;2023-07-09T05:12:46;101492.66;;;15.85;86.03
57048;BME280;42934;54.294;18.598;2023-07-09T05:15:16;101488.50;;;16.00;85.52
57048;BME280;42934;54.294;18.598;2023-07-09T05:17:46;101485.53;;;16.08;84.89
57048;BME280;42934;54.294;18.598;2023-07-09T05:20:15;101484.00;;;16.02;85.59
57048;BME280;42934;54.294;18.598;2023-07-09T05:22:44;101492.00;;;16.01;85.79
57048;BME280;42934;54.294;18.598;2023-07-09T05:25:13;101492.47;;;16.10;85.63
57048;BME280;42934;54.294;18.598;2023-07-09T05:27:43;101506.31;;;16.17;85.36
57048;BME280;42934;54.294;18.598;2023-07-09T05:30:12;101499.00;;;16.24;85.29
57048;BME280;42934;54.294;18.598;2023-07-09T05:32:41;101505.94;;;16.26;85.13
57048;BME280;42934;54.294;18.598;2023-07-09T05:35:10;101488.50;;;16.41;84.79
57048;BME280;42934;54.294;18.598;2023-07-09T05:37:39;101495.84;;;16.55;84.01
57048;BME280;42934;54.294;18.598;2023-07-09T05:40:08;101490.38;;;16.60;83.68
57048;BME280;42934;54.294;18.598;2023-07-09T05:42:37;101498.75;;;16.69;83.12
57048;BME280;42934;54.294;18.598;2023-07-09T05:45:08;101493.06;;;16.78;83.04
57048;BME280;42934;54.294;18.598;2023-07-09T05:47:37;101496.09;;;16.90;82.29
57048;BME280;42934;54.294;18.598;2023-07-09T05:50:07;101496.25;;;17.06;81.74
57048;BME280;42934;54.294;18.598;2023-07-09T05:52:36;101503.81;;;17.15;81.31
57048;BME280;42934;54.294;18.598;2023-07-09T05:55:05;101499.84;;;17.23;78.96
57048;BME280;42934;54.294;18.598;2023-07-09T05:57:34;101507.09;;;17.39;77.45
57048;BME280;42934;54.294;18.598;2023-07-09T06:00:04;101516.34;;;17.49;75.93
57048;BME280;42934;54.294;18.598;2023-07-09T06:02:41;101511.72;;;17.53;74.53
57048;BME280;42934;54.294;18.598;2023-07-09T06:05:10;101509.81;;;17.56;74.56
57048;BME280;42934;54.294;18.598;2023-07-09T06:07:39;101506.31;;;17.73;72.73
57048;BME280;42934;54.294;18.598;2023-07-09T06:10:08;101513.09;;;17.80;72.78
57048;BME280;42934;54.294;18.598;2023-07-09T06:12:37;101521.63;;;17.87;72.59
57048;BME280;42934;54.294;18.598;2023-07-09T06:15:07;101510.84;;;17.90;72.42
57048;BME280;42934;54.294;18.598;2023-07-09T06:17:36;101515.00;;;17.96;72.23
57048;BME280;42934;54.294;18.598;2023-07-09T06:20:07;101505.50;;;18.09;72.02
57048;BME280;42934;54.294;18.598;2023-07-09T06:22:36;101503.13;;;18.20;70.91
57048;BME280;42934;54.294;18.598;2023-07-09T06:25:05;101503.59;;;18.28;70.13
57048;BME280;42934;54.294;18.598;2023-07-09T06:27:34;101498.81;;;18.35;70.10
57048;BME280;42934;54.294;18.598;2023-07-09T06:30:03;101496.41;;;18.48;69.81
57048;BME280;42934;54.294;18.598;2023-07-09T06:32:33;101500.22;;;18.59;68.54
57048;BME280;42934;54.294;18.598;2023-07-09T06:35:01;101502.53;;;18.66;68.88
57048;BME280;42934;54.294;18.598;2023-07-09T06:37:32;101498.31;;;18.79;69.59
57048;BME280;42934;54.294;18.598;2023-07-09T06:40:01;101495.41;;;18.83;69.55
57048;BME280;42934;54.294;18.598;2023-07-09T06:42:32;101500.31;;;18.91;67.36
57048;BME280;42934;54.294;18.598;2023-07-09T06:45:10;101510.16;;;19.06;68.25
57048;BME280;42934;54.294;18.598;2023-07-09T06:47:39;101507.75;;;19.18;68.18
57048;BME280;42934;54.294;18.598;2023-07-09T06:50:08;101497.53;;;19.26;68.05
57048;BME280;42934;54.294;18.598;2023-07-09T06:52:38;101496.34;;;19.47;67.22
57048;BME280;42934;54.294;18.598;2023-07-09T06:55:07;101496.84;;;19.54;67.43
57048;BME280;42934;54.294;18.598;2023-07-09T06:57:36;101490.03;;;19.64;67.34
57048;BME280;42934;54.294;18.598;2023-07-09T07:00:06;101493.06;;;19.74;66.90
57048;BME280;42934;54.294;18.598;2023-07-09T07:02:36;101484.44;;;19.85;66.43
57048;BME280;42934;54.294;18.598;2023-07-09T07:05:05;101482.00;;;19.96;66.88
57048;BME280;42934;54.294;18.598;2023-07-09T07:07:34;101495.03;;;20.16;65.13
57048;BME280;42934;54.294;18.598;2023-07-09T07:10:04;101501.13;;;20.18;64.34
57048;BME280;42934;54.294;18.598;2023-07-09T07:12:40;101500.84;;;20.23;65.46
57048;BME280;42934;54.294;18.598;2023-07-09T07:15:10;101499.16;;;20.36;65.64
57048;BME280;42934;54.294;18.598;2023-07-09T07:17:41;101499.13;;;20.67;62.36
57048;BME280;42934;54.294;18.598;2023-07-09T07:20:10;101493.59;;;20.70;61.73
57048;BME280;42934;54.294;18.598;2023-07-09T07:22:39;101485.53;;;20.71;61.65
57048;BME280;42934;54.294;18.598;2023-07-09T07:25:10;101489.91;;;20.72;62.31
57048;BME280;42934;54.294;18.598;2023-07-09T07:27:40;101487.03;;;20.90;63.08
57048;BME280;42934;54.294;18.598;2023-07-09T07:30:09;101490.16;;;21.10;62.82
57048;BME280;42934;54.294;18.598;2023-07-09T07:32:38;101491.97;;;21.39;62.41
57048;BME280;42934;54.294;18.598;2023-07-09T07:35:07;101494.84;;;21.63;61.66
57048;BME280;42934;54.294;18.598;2023-07-09T07:37:37;101493.47;;;21.70;61.83
57048;BME280;42934;54.294;18.598;2023-07-09T07:40:06;101493.34;;;21.86;60.89
57048;BME280;42934;54.294;18.598;2023-07-09T07:42:37;101493.06;;;22.03;59.64
57048;BME280;42934;54.294;18.598;2023-07-09T07:45:06;101492.94;;;22.05;60.21
57048;BME280;42934;54.294;18.598;2023-07-09T07:47:36;101492.72;;;21.95;57.98
57048;BME280;42934;54.294;18.598;2023-07-09T07:50:05;101489.09;;;22.09;57.01
57048;BME280;42934;54.294;18.598;2023-07-09T07:52:34;101488.56;;;22.04;50.87
57048;BME280;42934;54.294;18.598;2023-07-09T07:55:05;101488.31;;;22.21;52.14
57048;BME280;42934;54.294;18.598;2023-07-09T07:57:34;101502.53;;;22.34;55.57
57048;BME280;42934;54.294;18.598;2023-07-09T08:00:05;101501.59;;;22.48;56.16
57048;BME280;42934;54.294;18.598;2023-07-09T08:02:41;101506.28;;;22.70;55.34
57048;BME280;42934;54.294;18.598;2023-07-09T08:05:09;101506.72;;;22.64;51.98
57048;BME280;42934;54.294;18.598;2023-07-09T08:07:39;101508.25;;;22.68;51.12
57048;BME280;42934;54.294;18.598;2023-07-09T08:10:07;101505.00;;;22.76;52.20
57048;BME280;42934;54.294;18.598;2023-07-09T08:12:36;101500.94;;;22.70;51.77
57048;BME280;42934;54.294;18.598;2023-07-09T08:15:07;101492.78;;;22.84;52.14
57048;BME280;42934;54.294;18.598;2023-07-09T08:17:37;101494.41;;;22.87;51.46
57048;BME280;42934;54.294;18.598;2023-07-09T08:20:06;101499.53;;;22.90;52.57
57048;BME280;42934;54.294;18.598;2023-07-09T08:22:36;101497.81;;;23.15;52.39
57048;BME280;42934;54.294;18.598;2023-07-09T08:25:07;101501.31;;;23.28;52.40
57048;BME280;42934;54.294;18.598;2023-07-09T08:27:36;101500.34;;;23.29;50.24
57048;BME280;42934;54.294;18.598;2023-07-09T08:30:07;101490.91;;;23.36;50.72
57048;BME280;42934;54.294;18.598;2023-07-09T08:32:37;101480.13;;;23.49;49.50
57048;BME280;42934;54.294;18.598;2023-07-09T08:35:05;101483.84;;;23.59;49.51
57048;BME280;42934;54.294;18.598;2023-07-09T08:37:38;101485.31;;;23.63;49.83
57048;BME280;42934;54.294;18.598;2023-07-09T08:40:08;101483.94;;;23.57;47.70
57048;BME280;42934;54.294;18.598;2023-07-09T08:42:40;101480.19;;;23.60;49.23
57048;BME280;42934;54.294;18.598;2023-07-09T08:45:30;101485.81;;;23.81;49.73
57048;BME280;42934;54.294;18.598;2023-07-09T08:48:04;101484.81;;;24.17;48.10
57048;BME280;42934;54.294;18.598;2023-07-09T08:50:36;101480.97;;;24.33;48.46
57048;BME280;42934;54.294;18.598;2023-07-09T08:53:07;101487.72;;;24.50;46.41
57048;BME280;42934;54.294;18.598;2023-07-09T08:55:38;101489.34;;;24.63;47.07
57048;BME280;42934;54.294;18.598;2023-07-09T08:58:12;101483.75;;;25.00;46.34
57048;BME280;42934;54.294;18.598;2023-07-09T09:00:45;101481.53;;;25.28;46.50
57048;BME280;42934;54.294;18.598;2023-07-09T09:03:23;101476.25;;;25.37;46.76
57048;BME280;42934;54.294;18.598;2023-07-09T09:05:56;101487.50;;;25.31;44.25
57048;BME280;42934;54.294;18.598;2023-07-09T09:08:29;101490.06;;;25.33;46.04
57048;BME280;42934;54.294;18.598;2023-07-09T09:11:00;101487.63;;;25.07;43.43
57048;BME280;42934;54.294;18.598;2023-07-09T09:13:32;101482.75;;;25.12;45.10
57048;BME280;42934;54.294;18.598;2023-07-09T09:16:06;101476.63;;;24.99;44.12
57048;BME280;42934;54.294;18.598;2023-07-09T09:18:40;101480.56;;;24.84;45.11
57048;BME280;42934;54.294;18.598;2023-07-09T09:21:12;101486.88;;;25.05;45.86
57048;BME280;42934;54.294;18.598;2023-07-09T09:23:45;101478.25;;;25.24;42.67
57048;BME280;42934;54.294;18.598;2023-07-09T09:26:18;101475.63;;;25.45;43.28
57048;BME280;42934;54.294;18.598;2023-07-09T09:28:47;101479.19;;;25.23;44.28
57048;BME280;42934;54.294;18.598;2023-07-09T09:31:17;101475.06;;;25.63;44.79
57048;BME280;42934;54.294;18.598;2023-07-09T09:33:47;101480.38;;;25.85;44.65
57048;BME280;42934;54.294;18.598;2023-07-09T09:36:18;101471.88;;;26.01;45.19
57048;BME280;42934;54.294;18.598;2023-07-09T09:38:47;101477.84;;;26.25;45.11
57048;BME280;42934;54.294;18.598;2023-07-09T09:41:18;101479.41;;;26.49;44.61
57048;BME280;42934;54.294;18.598;2023-07-09T09:43:49;101477.97;;;26.66;44.64
57048;BME280;42934;54.294;18.598;2023-07-09T09:46:22;101477.63;;;26.80;44.63
57048;BME280;42934;54.294;18.598;2023-07-09T09:48:53;101477.38;;;26.93;41.73
57048;BME280;42934;54.294;18.598;2023-07-09T09:51:22;101481.06;;;26.92;43.60
57048;BME280;42934;54.294;18.598;2023-07-09T09:53:52;101473.28;;;27.08;44.08
57048;BME280;42934;54.294;18.598;2023-07-09T09:56:26;101475.66;;;27.23;42.56
57048;BME280;42934;54.294;18.598;2023-07-09T09:58:56;101471.84;;;27.35;43.19
57048;BME280;42934;54.294;18.598;2023-07-09T10:01:28;101476.09;;;27.37;43.70
57048;BME280;42934;54.294;18.598;2023-07-09T10:03:59;101473.69;;;27.44;42.99
57048;BME280;42934;54.294;18.598;2023-07-09T10:06:33;101466.31;;;27.56;42.88
57048;BME280;42934;54.294;18.598;2023-07-09T10:09:05;101463.47;;;27.67;42.96
57048;BME280;42934;54.294;18.598;2023-07-09T10:11:39;101458.66;;;27.71;43.25
57048;BME280;42934;54.294;18.598;2023-07-09T10:14:21;101455.84;;;27.82;42.20
57048;BME280;42934;54.294;18.598;2023-07-09T10:16:56;101461.25;;;27.92;43.21
57048;BME280;42934;54.294;18.598;2023-07-09T10:19:30;101462.66;;;28.15;40.78
57048;BME280;42934;54.294;18.598;2023-07-09T10:22:04;101465.34;;;28.15;40.44
57048;BME280;42934;54.294;18.598;2023-07-09T10:24:37;101469.88;;;28.15;39.82
57048;BME280;42934;54.294;18.598;2023-07-09T10:27:12;101466.03;;;28.17;39.93
57048;BME280;42934;54.294;18.598;2023-07-09T10:29:54;101468.06;;;28.15;40.44
57048;BME280;42934;54.294;18.598;2023-07-09T10:32:47;101468.72;;;28.37;40.29
57048;BME280;42934;54.294;18.598;2023-07-09T10:35:23;101468.16;;;28.33;39.23
57048;BME280;42934;54.294;18.598;2023-07-09T10:38:01;101461.44;;;28.47;37.63
57048;BME280;42934;54.294;18.598;2023-07-09T10:40:36;101467.44;;;28.50;39.51
57048;BME280;42934;54.294;18.598;2023-07-09T10:43:10;101456.72;;;28.59;39.62
57048;BME280;42934;54.294;18.598;2023-07-09T10:45:44;101459.72;;;28.56;40.19
57048;BME280;42934;54.294;18.598;2023-07-09T10:48:31;101466.00;;;28.46;38.11
57048;BME280;42934;54.294;18.598;2023-07-09T10:51:02;101466.56;;;28.50;39.82
57048;BME280;42934;54.294;18.598;2023-07-09T10:53:34;101464.59;;;28.33;36.82
57048;BME280;42934;54.294;18.598;2023-07-09T10:56:05;101461.59;;;28.45;38.69
57048;BME280;42934;54.294;18.598;2023-07-09T10:58:38;101469.84;;;28.44;38.25
57048;BME280;42934;54.294;18.598;2023-07-09T11:01:10;101464.31;;;28.26;35.83
57048;BME280;42934;54.294;18.598;2023-07-09T11:03:44;101464.72;;;28.31;37.58
57048;BME280;42934;54.294;18.598;2023-07-09T11:06:19;101461.47;;;28.18;38.95
57048;BME280;42934;54.294;18.598;2023-07-09T11:08:50;101458.38;;;28.13;38.03
57048;BME280;42934;54.294;18.598;2023-07-09T11:11:25;101459.94;;;28.15;39.26
57048;BME280;42934;54.294;18.598;2023-07-09T11:13:58;101456.28;;;28.06;37.30
57048;BME280;42934;54.294;18.598;2023-07-09T11:16:30;101451.75;;;27.97;38.91
57048;BME280;42934;54.294;18.598;2023-07-09T11:19:04;101468.19;;;27.94;38.28
57048;BME280;42934;54.294;18.598;2023-07-09T11:21:40;101459.25;;;27.84;37.80
57048;BME280;42934;54.294;18.598;2023-07-09T11:27:15;101464.06;;;28.00;38.14
57048;BME280;42934;54.294;18.598;2023-07-09T11:29:47;101468.47;;;27.91;38.36
57048;BME280;42934;54.294;18.598;2023-07-09T11:32:21;101460.81;;;27.87;36.93
57048;BME280;42934;54.294;18.598;2023-07-09T11:35:08;101456.00;;;27.80;37.82
57048;BME280;42934;54.294;18.598;2023-07-09T11:37:47;101451.16;;;27.74;38.84
57048;BME280;42934;54.294;18.598;2023-07-09T11:40:16;101464.22;;;27.79;38.17
57048;BME280;42934;54.294;18.598;2023-07-09T11:42:51;101464.81;;;27.92;37.50
57048;BME280;42934;54.294;18.598;2023-07-09T11:45:24;101460.22;;;27.73;37.77
57048;BME280;42934;54.294;18.598;2023-07-09T11:47:59;101458.53;;;27.72;38.41
57048;BME280;42934;54.294;18.598;2023-07-09T11:50:35;101457.69;;;27.72;38.76
57048;BME280;42934;54.294;18.598;2023-07-09T11:53:25;101461.66;;;27.77;38.54
57048;BME280;42934;54.294;18.598;2023-07-09T11:55:57;101457.09;;;27.78;38.65
57048;BME280;42934;54.294;18.598;2023-07-09T11:58:26;101451.44;;;27.91;38.55
57048;BME280;42934;54.294;18.598;2023-07-09T12:00:55;101449.75;;;27.80;39.11
57048;BME280;42934;54.294;18.598;2023-07-09T12:03:26;101451.16;;;27.84;38.78
57048;BME280;42934;54.294;18.598;2023-07-09T12:05:59;101449.59;;;27.91;39.11
57048;BME280;42934;54.294;18.598;2023-07-09T12:08:32;101450.72;;;27.98;38.90
57048;BME280;42934;54.294;18.598;2023-07-09T12:11:02;101452.44;;;27.90;39.19
57048;BME280;42934;54.294;18.598;2023-07-09T12:13:36;101458.09;;;27.96;38.71
57048;BME280;42934;54.294;18.598;2023-07-09T12:16:17;101455.69;;;27.93;39.20
57048;BME280;42934;54.294;18.598;2023-07-09T12:18:47;101448.91;;;27.89;38.67
57048;BME280;42934;54.294;18.598;2023-07-09T12:21:18;101447.03;;;27.90;39.18
57048;BME280;42934;54.294;18.598;2023-07-09T12:23:47;101446.03;;;27.91;39.01
57048;BME280;42934;54.294;18.598;2023-07-09T12:26:18;101445.63;;;27.85;39.67
57048;BME280;42934;54.294;18.598;2023-07-09T12:28:51;101434.09;;;27.93;39.30
57048;BME280;42934;54.294;18.598;2023-07-09T12:31:21;101436.69;;;27.95;39.67
57048;BME280;42934;54.294;18.598;2023-07-09T12:33:52;101430.69;;;27.91;39.41
57048;BME280;42934;54.294;18.598;2023-07-09T12:36:23;101427.31;;;27.89;39.45
57048;BME280;42934;54.294;18.598;2023-07-09T12:38:53;101417.50;;;27.78;40.22
57048;BME280;42934;54.294;18.598;2023-07-09T12:41:24;101418.91;;;27.82;39.84
57048;BME280;42934;54.294;18.598;2023-07-09T12:43:55;101420.34;;;27.87;39.02
57048;BME280;42934;54.294;18.598;2023-07-09T12:46:24;101426.16;;;27.72;39.92
57048;BME280;42934;54.294;18.598;2023-07-09T12:48:55;101421.88;;;27.70;40.14
57048;BME280;42934;54.294;18.598;2023-07-09T12:51:28;101415.22;;;27.83;38.96
57048;BME280;42934;54.294;18.598;2023-07-09T12:54:02;101423.16;;;27.75;39.61
57048;BME280;42934;54.294;18.598;2023-07-09T12:56:33;101424.16;;;27.74;39.69
57048;BME280;42934;54.294;18.598;2023-07-09T12:59:04;101422.72;;;27.70;40.36
57048;BME280;42934;54.294;18.598;2023-07-09T13:01:37;101413.94;;;27.68;37.83
57048;BME280;42934;54.294;18.598;2023-07-09T13:04:07;101414.22;;;27.75;39.98